Airport View

Enter AWOS ICAO identifier for current METAR.

ex. KFNL

K3AU 192115Z AUTO 15008KT 10SM CLR 35/25 A2994 RMK AO2

19 Aug 2019 21:25

Frequency: 124.175

Phone: 316-733-6696

Other Area AWOS: K1K1 - KBEC - KAAO - KIAB

TAF KIAB 191000Z 1910/2016 VRB06KT 9999 SKC QNH2992INS BECMG 1920/1921 19010G15KT 9999 SKC QNH2987INS TX37/1921Z TN24/1912Z